KACT/ACT METAR and TAF weather

Enter ICAO airport designator
Station Type Date Time Source
KACT METAR 2020/09/18 16:01 UTC NOAA

KACT 181601Z 02007KT 10SM CLR 27/19 A3012 RMK AO2 T02670194


Station Type Date Time Source
KACT Decoded METAR 2020/09/18 16:01 UTC NOAA

WACO REGIONAL AIRPORT, TX, United States (KACT) 31-36N 97-13W 151M
Sep 18, 2020 - 12:01 PM EDT / 2020.09.18 1601 UTC
Wind: from the NNE (020 degrees) at 8 MPH (7 KT):0
Visibility: 10 mile(s):0
Sky conditions: clear
Temperature: 80.1 F (26.7 C)
Dew Point: 66.9 F (19.4 C)
Relative Humidity: 64%
Pressure (altimeter): 30.12 in. Hg (1019 hPa)
ob: KACT 181601Z 02007KT 10SM CLR 27/19 A3012 RMK AO2 T02670194
cycle: 16

Station Type Date Time Source
KACT TAF 2020/09/18 15:58 UTC NOAA

TAF
AMD KACT 181455Z 1815/1912 01008KT P6SM SCT050
FM181700 04010KT P6SM SCT050
FM182300 05008KT P6SM SCT250

Example: see airport list